Time;durP1;ratioP1;P1;durP2;ratioP2;P2;SDS_P1;SDS_P2;PMS_P1;PMS_P2;Temp;Humidity;BMP_temperature;BMP_pressure;BME280_temperature;BME280_humidity;BME280_pressure;Samples;Min_cycle;Max_cycle;Signal;HPM_P1;HPM_P2
2022/07/20 00:01:02;;;;;;;4.95;2.10;;;23.10;45.50;;;22.49;47.36;96129.91;4935868;28;20039;-66
2022/07/20 00:03:30;;;;;;;3.83;2.28;;;23.00;46.10;;;22.46;47.09;96133.91;4934467;28;20049;-66
2022/07/20 00:05:56;;;;;;;3.90;2.15;;;23.00;46.10;;;22.40;47.05;96129.59;4928221;28;20109;-66
2022/07/20 00:11:22;;;;;;;4.07;2.15;;;22.90;45.80;;;22.31;47.43;96125.81;4912192;28;20194;-66
2022/07/20 00:13:51;;;;;;;5.10;2.28;;;22.90;46.00;;;22.27;47.46;96124.72;4954391;28;20122;-66
2022/07/20 00:16:17;;;;;;;3.23;1.90;;;22.80;46.40;;;22.24;47.53;96125.25;4947370;28;20078;-66
2022/07/20 00:18:43;;;;;;;4.07;2.25;;;22.80;46.90;;;22.19;48.56;96131.41;4949203;28;20035;-66
2022/07/20 00:21:09;;;;;;;7.88;1.98;;;22.80;47.30;;;22.15;48.59;96122.25;4948566;28;20035;-66
2022/07/20 00:23:35;;;;;;;4.25;1.80;;;22.60;47.30;;;22.09;48.52;96127.84;4948741;28;20467;-66
2022/07/20 00:26:00;;;;;;;4.93;2.20;;;22.70;47.60;;;22.04;48.80;96122.44;4923495;29;20161;-66
2022/07/20 00:28:26;;;;;;;6.90;2.13;;;22.60;47.10;;;22.00;48.54;96122.97;4932274;29;20529;-66
2022/07/20 00:30:52;;;;;;;4.95;2.20;;;22.60;47.40;;;21.97;48.96;96125.38;4927450;28;20422;-66
2022/07/20 00:33:17;;;;;;;3.67;2.10;;;22.60;47.70;;;21.92;49.03;96115.41;4963471;28;20460;-67
2022/07/20 00:35:43;;;;;;;4.60;2.20;;;22.50;47.80;;;21.88;49.22;96117.00;4929507;29;20039;-66
2022/07/20 00:38:09;;;;;;;4.25;1.98;;;22.50;48.10;;;21.83;49.28;96119.66;4927104;28;20036;-66
2022/07/20 00:40:35;;;;;;;7.32;2.10;;;22.40;48.20;;;21.79;49.41;96123.13;4947826;28;20530;-66
2022/07/20 00:43:00;;;;;;;4.38;2.00;;;22.40;48.30;;;21.73;49.97;96114.25;4914678;29;20612;-66
2022/07/20 00:45:26;;;;;;;5.13;2.40;;;22.30;48.50;;;21.67;49.91;96108.03;4947254;28;20039;-66
2022/07/20 00:47:52;;;;;;;4.57;2.10;;;22.30;48.30;;;21.63;49.43;96114.19;4947296;28;20047;-66
2022/07/20 00:50:17;;;;;;;5.78;2.03;;;22.20;48.20;;;21.58;49.94;96108.81;4947253;28;20122;-66
2022/07/20 00:52:43;;;;;;;6.32;2.35;;;22.20;48.40;;;21.53;50.09;96100.75;4921599;28;20523;-68
2022/07/20 00:55:09;;;;;;;3.50;1.92;;;22.10;48.60;;;21.50;50.61;96101.22;4946007;28;20098;-66
2022/07/20 00:57:35;;;;;;;6.00;2.13;;;22.10;48.50;;;21.43;49.86;96103.34;4946423;28;20106;-66
2022/07/20 01:00:01;;;;;;;7.53;2.35;;;22.10;48.70;;;21.39;50.52;96101.19;4947612;28;20036;-67
2022/07/20 01:02:27;;;;;;;7.88;2.20;;;22.00;48.80;;;21.35;50.60;96102.75;4965645;28;20060;-66
2022/07/20 01:04:52;;;;;;;6.03;2.30;;;22.00;49.00;;;21.30;50.89;96100.06;4930225;28;20031;-66
2022/07/20 01:07:18;;;;;;;4.82;2.20;;;21.90;48.90;;;21.27;50.52;96105.88;4958210;28;20039;-66
2022/07/20 01:09:47;;;;;;;3.70;2.03;;;21.90;49.20;;;21.25;51.50;96105.34;4938715;28;20046;-66
2022/07/20 01:12:13;;;;;;;9.18;2.85;;;21.90;49.50;;;21.19;50.59;96095.66;4948175;28;20058;-67
2022/07/20 01:14:38;;;;;;;4.07;2.10;;;21.80;49.40;;;21.16;51.33;96093.47;4947476;28;20384;-66
2022/07/20 01:17:04;;;;;;;7.20;2.05;;;21.80;49.60;;;21.09;51.30;96093.72;4943066;28;20046;-66
2022/07/20 01:19:30;;;;;;;6.10;2.28;;;21.70;49.50;;;21.08;51.75;96096.63;4947630;28;20058;-66
2022/07/20 01:21:56;;;;;;;5.43;2.50;;;21.70;49.80;;;21.06;51.91;96093.41;4948102;28;20047;-66
2022/07/20 01:24:22;;;;;;;4.78;2.30;;;21.70;49.80;;;21.03;51.75;96088.53;4947681;28;20439;-66
2022/07/20 01:26:47;;;;;;;7.00;2.00;;;21.60;50.00;;;20.98;51.63;96091.19;4947692;28;20059;-66
2022/07/20 01:29:13;;;;;;;4.75;2.08;;;21.60;50.10;;;20.93;51.91;96088.47;4946843;28;20047;-66
2022/07/20 01:31:40;;;;;;;4.40;2.15;;;21.60;50.30;;;20.94;51.49;96087.41;4949883;28;20114;-66
2022/07/20 01:34:05;;;;;;;3.67;1.85;;;21.60;50.30;;;20.93;51.89;96086.59;4935187;29;20039;-67
2022/07/20 01:36:31;;;;;;;4.30;2.10;;;21.60;49.90;;;20.94;52.33;96090.09;4951061;28;20486;-67
2022/07/20 01:38:57;;;;;;;6.15;2.20;;;21.70;49.90;;;20.96;52.45;96085.28;4918580;28;20058;-66
2022/07/20 01:41:22;;;;;;;4.50;2.28;;;21.60;49.80;;;20.97;52.62;96074.34;4945797;28;20028;-66
2022/07/20 01:43:48;;;;;;;4.68;2.30;;;21.70;50.00;;;20.98;51.63;96065.25;4951372;28;20069;-66
2022/07/20 01:46:14;;;;;;;6.75;2.53;;;21.70;49.80;;;20.97;52.49;96068.19;4949429;28;20047;-66
2022/07/20 01:48:40;;;;;;;4.93;2.53;;;21.70;49.90;;;20.98;52.38;96070.59;4966568;28;20070;-66
2022/07/20 01:51:06;;;;;;;7.25;2.30;;;21.70;49.50;;;21.00;52.33;96075.69;4950709;28;20035;-66
2022/07/20 01:53:31;;;;;;;3.63;2.08;;;21.70;49.50;;;21.01;52.20;96074.63;4936545;28;20047;-66
2022/07/20 01:55:57;;;;;;;5.15;2.28;;;21.80;49.70;;;21.04;51.61;96079.47;4968889;28;20032;-68
2022/07/20 01:58:23;;;;;;;5.93;2.63;;;21.80;49.50;;;21.05;52.17;96081.09;4962123;28;20118;-66
2022/07/20 02:00:49;;;;;;;4.90;2.08;;;21.80;49.90;;;21.05;52.09;96081.09;4949449;28;20086;-66
2022/07/20 02:03:15;;;;;;;3.42;2.10;;;21.80;49.60;;;21.06;51.94;96080.03;4935107;29;20116;-66
2022/07/20 02:05:40;;;;;;;6.30;2.30;;;21.80;50.00;;;21.05;52.38;96075.75;4950400;28;20063;-66
2022/07/20 02:08:06;;;;;;;4.10;2.13;;;21.80;49.70;;;21.05;53.01;96070.41;4966251;28;20043;-66
2022/07/20 02:10:32;;;;;;;5.32;2.33;;;21.70;50.40;;;21.03;52.71;96073.31;4936290;28;20031;-66
2022/07/20 02:12:58;;;;;;;4.75;2.25;;;21.70;50.20;;;21.02;53.19;96071.69;4934828;28;20145;-66
2022/07/20 02:18:09;;;;;;;5.45;2.00;;;21.80;50.30;;;20.99;52.71;96074.88;4937647;28;20039;-66
2022/07/20 02:20:35;;;;;;;4.82;2.28;;;21.70;50.80;;;20.97;52.86;96089.56;4934922;28;20525;-67
2022/07/20 02:23:02;;;;;;;3.38;2.15;;;21.60;50.70;;;20.91;52.65;96095.94;4954476;28;20034;-66
2022/07/20 02:25:28;;;;;;;4.63;2.10;;;21.60;51.00;;;20.87;53.80;96097.53;4941759;28;20438;-66
2022/07/20 02:27:54;;;;;;;5.72;2.50;;;21.50;51.60;;;20.80;53.96;96101.19;4951023;28;20035;-66
2022/07/20 02:30:20;;;;;;;5.60;2.60;;;21.40;52.10;;;20.74;54.15;96101.41;4917438;29;20035;-66
2022/07/20 02:32:46;;;;;;;4.40;2.17;;;21.40;52.50;;;20.70;54.22;96094.94;4919521;28;20035;-66
2022/07/20 02:35:11;;;;;;;7.00;3.00;;;21.40;52.50;;;20.64;54.89;96099.44;4936170;29;20046;-67
2022/07/20 02:37:37;;;;;;;3.63;2.10;;;21.30;52.50;;;20.61;55.15;96105.31;4963740;28;20051;-66
2022/07/20 02:40:04;;;;;;;7.35;2.60;;;21.30;52.70;;;20.58;55.55;96102.28;4949558;28;20102;-67
2022/07/20 02:42:29;;;;;;;3.55;2.20;;;21.20;52.80;;;20.50;55.09;96095.53;4919999;29;20122;-66
2022/07/20 02:44:55;;;;;;;7.75;2.17;;;21.10;52.60;;;20.45;55.03;96100.84;4949141;28;21818;-66
2022/07/20 02:47:21;;;;;;;7.18;2.47;;;21.10;52.70;;;20.40;55.73;96104.28;4948625;28;20558;-67
2022/07/20 02:49:47;;;;;;;6.07;2.40;;;21.10;52.90;;;20.35;55.08;96098.00;4918376;28;20360;-66
2022/07/20 02:52:12;;;;;;;5.75;2.20;;;21.00;52.90;;;20.33;55.51;96100.13;4946113;28;20531;-68
2022/07/20 02:54:38;;;;;;;7.10;4.30;;;21.10;53.10;;;20.29;55.09;96099.03;4933521;28;20067;-67
2022/07/20 02:57:04;;;;;;;6.88;4.50;;;21.00;52.90;;;20.26;55.92;96097.66;4933099;28;20050;-67
2022/07/20 02:59:29;;;;;;;4.25;3.00;;;21.00;53.20;;;20.23;55.73;96106.19;4951137;28;20039;-68
2022/07/20 03:01:55;;;;;;;8.18;6.03;;;20.90;53.30;;;20.18;56.58;96095.44;4948741;28;20035;-67
2022/07/20 03:04:21;;;;;;;7.68;4.35;;;20.90;53.10;;;20.17;56.37;96099.97;4949602;28;20110;-68
2022/07/20 03:06:46;;;;;;;9.77;3.38;;;20.90;53.30;;;20.13;56.56;96096.16;4965422;28;20712;-67
2022/07/20 03:09:12;;;;;;;4.72;2.55;;;20.90;53.50;;;20.10;56.35;96102.00;4949243;28;20047;-67
2022/07/20 03:11:38;;;;;;;6.47;4.70;;;20.80;53.40;;;20.08;56.75;96098.78;4933737;29;20094;-67
2022/07/20 03:14:04;;;;;;;13.77;7.80;;;20.80;53.50;;;20.04;57.01;96097.66;4948737;28;20043;-68
2022/07/20 03:16:29;;;;;;;12.82;9.38;;;20.70;53.70;;;20.02;57.52;96104.31;4919749;29;20051;-67
2022/07/20 03:18:55;;;;;;;10.13;7.22;;;20.70;53.80;;;19.99;57.69;96100.28;4945120;28;20496;-67
2022/07/20 03:21:21;;;;;;;4.85;3.33;;;20.70;54.10;;;19.97;57.51;96102.41;4965521;28;20459;-68
2022/07/20 03:23:47;;;;;;;5.43;2.97;;;20.70;54.20;;;19.96;56.50;96100.78;4949142;28;20123;-68
2022/07/20 03:26:12;;;;;;;13.50;7.60;;;20.70;54.30;;;19.96;57.50;96106.13;4950270;28;20043;-67
2022/07/20 03:28:38;;;;;;;10.50;7.22;;;20.70;54.40;;;19.96;57.01;96107.97;4948654;28;20035;-67
2022/07/20 03:31:04;;;;;;;9.38;7.47;;;20.70;54.40;;;19.95;57.69;96104.50;4948599;28;20038;-67
2022/07/20 03:33:30;;;;;;;6.28;4.93;;;20.70;54.10;;;19.96;58.00;96105.31;4946922;28;20130;-68
2022/07/20 03:35:55;;;;;;;7.90;5.15;;;20.70;54.20;;;19.93;56.96;96101.28;4948256;28;20134;-68
2022/07/20 03:38:21;;;;;;;11.93;9.10;;;20.70;54.20;;;19.91;58.17;96100.69;4964720;28;20540;-67
2022/07/20 03:40:47;;;;;;;9.90;4.30;;;20.70;54.30;;;19.91;57.89;96103.34;4948489;28;20375;-68
2022/07/20 03:43:13;;;;;;;7.65;4.20;;;20.70;54.00;;;19.91;57.61;96097.22;4964211;28;20038;-67
2022/07/20 03:45:38;;;;;;;5.90;3.30;;;20.70;54.40;;;19.90;57.60;96096.41;4965028;28;20086;-67
2022/07/20 03:48:05;;;;;;;5.45;3.05;;;20.70;54.40;;;19.91;58.50;96098.03;4931457;28;20047;-68
2022/07/20 03:50:30;;;;;;;4.50;2.78;;;20.70;54.50;;;19.92;58.05;96107.69;4945861;28;20538;-67
2022/07/20 03:52:56;;;;;;;3.67;2.65;;;20.70;54.30;;;19.91;57.77;96095.34;4963898;28;20043;-64
2022/07/20 03:55:22;;;;;;;6.07;2.38;;;20.70;54.30;;;19.90;57.95;96101.75;4951078;28;20553;-66
2022/07/20 03:57:48;;;;;;;6.05;2.95;;;20.70;54.50;;;19.91;58.60;96111.38;4932298;29;20054;-66
2022/07/20 04:00:14;;;;;;;4.80;2.63;;;20.70;54.70;;;19.90;58.20;96107.09;4934475;28;20075;-66
2022/07/20 04:02:40;;;;;;;10.20;2.72;;;20.70;54.50;;;19.93;59.03;96106.63;4923218;28;20027;-66
2022/07/20 04:05:06;;;;;;;6.03;2.78;;;20.80;54.60;;;19.95;58.06;96106.38;4954209;28;20030;-67
2022/07/20 04:07:32;;;;;;;4.53;2.47;;;20.80;54.70;;;19.96;58.02;96099.97;4969952;28;20047;-67
2022/07/20 04:09:58;;;;;;;4.60;2.90;;;20.80;54.90;;;19.96;58.76;96111.47;4951267;28;20530;-66
2022/07/20 04:12:24;;;;;;;6.82;2.47;;;20.90;54.80;;;19.97;58.70;96102.41;4967055;28;20035;-69
2022/07/20 04:14:51;;;;;;;6.35;2.55;;;20.90;54.70;;;19.98;58.51;96112.03;4967403;28;20085;-69
2022/07/20 04:17:17;;;;;;;8.10;3.00;;;20.90;54.90;;;19.99;58.43;96120.84;4967087;28;20030;-69
2022/07/20 04:19:42;;;;;;;5.22;2.95;;;20.90;54.90;;;19.97;59.75;96115.75;4966693;28;20031;-69
2022/07/20 04:22:08;;;;;;;5.50;2.50;;;20.80;55.30;;;19.97;59.92;96118.41;4967911;28;20105;-69
2022/07/20 04:24:34;;;;;;;6.45;2.63;;;20.80;55.60;;;19.95;59.04;96115.19;4915589;29;20031;-69
2022/07/20 04:27:00;;;;;;;6.57;2.90;;;20.80;55.80;;;19.94;59.59;96107.44;4930757;28;20415;-69
2022/07/20 04:29:26;;;;;;;7.20;2.67;;;20.80;55.90;;;19.95;59.43;96115.19;4899918;29;20499;-69
2022/07/20 04:31:52;;;;;;;6.28;2.85;;;20.90;55.70;;;19.97;59.11;96120.28;4915702;29;20062;-70
2022/07/20 04:34:18;;;;;;;4.05;2.63;;;20.90;54.90;;;19.98;59.40;96119.22;4936304;28;20039;-69
2022/07/20 04:36:43;;;;;;;5.00;3.05;;;20.90;55.40;;;19.98;60.45;96120.03;4919459;28;20477;-68
2022/07/20 04:39:09;;;;;;;7.53;4.35;;;20.90;55.80;;;20.00;59.85;96125.13;4934899;29;20042;-69
2022/07/20 04:41:35;;;;;;;12.60;7.60;;;21.00;55.50;;;20.01;60.90;96122.19;4934516;29;20023;-68
2022/07/20 04:44:00;;;;;;;12.68;9.68;;;21.00;55.40;;;20.03;59.95;96121.94;4934495;29;20414;-68
2022/07/20 04:46:28;;;;;;;9.50;5.00;;;21.00;55.30;;;20.07;60.34;96123.06;4934012;28;20499;-68
2022/07/20 04:48:54;;;;;;;6.53;3.30;;;21.10;55.30;;;20.10;59.89;96119.91;4949329;28;20481;-68
2022/07/20 04:51:20;;;;;;;5.40;3.60;;;21.10;55.50;;;20.13;60.76;96128.22;4934489;28;20440;-68
2022/07/20 04:53:46;;;;;;;6.70;3.33;;;21.10;55.30;;;20.16;59.90;96125.06;4934078;28;20042;-68
2022/07/20 04:56:12;;;;;;;8.25;2.85;;;21.10;55.20;;;20.19;59.79;96129.09;4950522;28;20032;-68
2022/07/20 04:58:38;;;;;;;8.98;3.20;;;21.20;55.00;;;20.22;59.71;96125.13;4933550;28;20073;-68
2022/07/20 05:01:04;;;;;;;7.65;3.10;;;21.30;55.20;;;20.27;59.73;96131.31;4947121;28;20073;-68
2022/07/20 05:03:29;;;;;;;8.15;3.08;;;21.30;54.50;;;20.30;59.79;96136.16;4955731;28;20039;-68
2022/07/20 05:05:55;;;;;;;8.75;3.08;;;21.40;54.00;;;20.33;59.64;96127.66;4952869;28;20049;-68
2022/07/20 05:08:21;;;;;;;7.30;2.83;;;21.50;54.60;;;20.36;59.26;96124.47;4953987;28;20054;-69
2022/07/20 05:10:46;;;;;;;6.20;3.05;;;21.40;54.00;;;20.41;59.56;96129.13;4953377;28;20042;-68
2022/07/20 05:13:12;;;;;;;8.93;3.03;;;21.50;54.00;;;20.45;59.06;96132.91;4954308;28;20027;-68
2022/07/20 05:15:38;;;;;;;6.35;2.83;;;21.60;54.10;;;20.46;58.92;96137.19;4939709;28;20032;-68
2022/07/20 05:18:04;;;;;;;7.72;3.13;;;21.60;53.30;;;20.48;58.74;96140.41;4921870;29;20113;-68
2022/07/20 05:20:29;;;;;;;4.75;2.90;;;21.60;53.50;;;20.53;59.09;96137.00;4922461;29;20090;-68
2022/07/20 05:22:55;;;;;;;7.38;3.28;;;21.60;53.50;;;20.56;58.81;96126.59;4937608;28;20039;-68
2022/07/20 05:25:21;;;;;;;7.32;3.00;;;21.70;54.00;;;20.60;59.38;96132.28;4953944;29;20058;-68
2022/07/20 05:27:47;;;;;;;8.70;2.78;;;21.70;54.30;;;20.63;59.10;96137.94;4921806;28;20035;-68
2022/07/20 05:30:12;;;;;;;7.28;2.67;;;21.80;53.00;;;20.69;58.21;96136.91;4922186;29;20027;-68
2022/07/20 05:32:38;;;;;;;4.25;2.78;;;21.80;53.30;;;20.73;58.34;96131.88;4925944;28;20127;-68
2022/07/20 05:35:05;;;;;;;5.43;3.13;;;21.80;53.60;;;20.80;58.09;96133.25;4918617;29;20051;-68
2022/07/20 05:37:31;;;;;;;11.07;7.85;;;22.00;53.70;;;20.86;58.98;96130.66;4934471;28;20110;-68
2022/07/20 05:39:56;;;;;;;7.63;4.50;;;22.00;53.90;;;20.91;59.59;96134.19;4918685;29;20040;-68
2022/07/20 05:42:22;;;;;;;4.85;2.88;;;22.10;53.80;;;21.02;59.41;96140.44;4918886;29;20091;-68
2022/07/20 05:44:48;;;;;;;9.07;3.35;;;22.30;53.00;;;21.09;58.48;96139.19;4925916;29;20103;-68
2022/07/20 05:47:14;;;;;;;4.82;2.58;;;22.40;52.50;;;21.18;58.54;96144.06;4966613;28;20090;-68
2022/07/20 05:49:40;;;;;;;5.50;2.53;;;22.50;53.00;;;21.28;58.30;96139.63;4937390;29;20027;-68
2022/07/20 05:52:05;;;;;;;4.88;2.60;;;22.60;52.70;;;21.40;58.95;96126.88;4921933;29;20090;-68
2022/07/20 05:54:31;;;;;;;10.40;3.15;;;22.70;53.00;;;21.52;58.89;96133.94;4937756;28;20031;-69
2022/07/20 05:56:57;;;;;;;5.75;3.00;;;22.90;52.80;;;21.63;58.86;96131.03;4921257;28;20031;-68
2022/07/20 05:59:22;;;;;;;4.53;2.60;;;23.10;52.60;;;21.78;58.84;96137.56;4927190;29;20475;-68
2022/07/20 06:01:48;;;;;;;8.23;3.00;;;23.20;52.20;;;21.90;58.10;96141.66;4921640;28;20459;-68
2022/07/20 06:04:14;;;;;;;8.35;2.80;;;23.40;51.30;;;22.06;57.83;96128.38;4937536;29;20542;-68
2022/07/20 06:06:40;;;;;;;7.18;2.83;;;23.60;50.80;;;22.23;57.66;96139.72;4921170;28;20094;-68
2022/07/20 06:09:06;;;;;;;8.63;3.20;;;23.80;50.00;;;22.39;56.85;96146.72;4937155;29;20384;-68
2022/07/20 06:11:32;;;;;;;7.68;2.90;;;24.10;49.60;;;22.57;57.18;96140.91;4936591;28;20042;-68
2022/07/20 06:13:57;;;;;;;7.18;2.83;;;24.30;49.20;;;22.75;56.54;96142.31;4957710;28;20520;-68
2022/07/20 06:16:23;;;;;;;5.68;2.78;;;24.50;49.50;;;22.95;57.17;96138.88;4918750;29;20028;-68
2022/07/20 06:18:49;;;;;;;7.25;3.00;;;24.70;49.10;;;23.14;55.97;96140.00;4917192;28;20102;-68
2022/07/20 06:21:14;;;;;;;8.50;3.50;;;25.00;48.70;;;23.34;55.72;96138.38;4902393;29;20028;-68
2022/07/20 06:23:41;;;;;;;5.35;2.90;;;25.20;47.70;;;23.51;54.77;96128.16;4933494;28;20079;-68
2022/07/20 06:26:07;;;;;;;9.15;3.30;;;25.50;47.20;;;23.70;55.13;96131.94;4924424;28;20519;-68
2022/07/20 06:28:33;;;;;;;9.30;3.30;;;25.70;47.10;;;23.90;54.94;96138.34;4952397;28;20130;-68
2022/07/20 06:30:58;;;;;;;9.88;3.03;;;26.10;46.60;;;24.10;54.27;96135.59;4920458;28;20066;-68
2022/07/20 06:33:25;;;;;;;9.25;3.58;;;26.30;45.80;;;24.30;54.41;96134.75;4936399;29;20047;-68
2022/07/20 06:35:50;;;;;;;9.13;3.00;;;26.50;45.80;;;24.51;53.49;96140.88;4921056;29;20640;-68
2022/07/20 06:38:16;;;;;;;5.93;2.92;;;26.70;44.90;;;24.70;53.25;96144.53;4952412;29;20050;-68
2022/07/20 06:40:42;;;;;;;13.27;2.97;;;26.90;44.80;;;24.91;52.96;96146.03;4921948;28;20122;-68
2022/07/20 06:43:08;;;;;;;4.47;2.88;;;27.10;44.60;;;25.14;52.55;96141.06;4952460;28;20064;-69
2022/07/20 06:45:33;;;;;;;5.97;2.72;;;27.40;44.10;;;25.31;51.87;96136.06;4936294;29;20082;-68
2022/07/20 06:47:59;;;;;;;8.68;3.17;;;27.60;43.40;;;25.52;51.45;96148.28;4936272;29;20035;-68
2022/07/20 06:50:25;;;;;;;7.07;2.60;;;27.80;42.90;;;25.71;51.22;96136.84;4928879;28;20043;-69
2022/07/20 06:52:50;;;;;;;6.75;3.35;;;28.20;42.60;;;25.90;50.37;96143.94;4954126;28;20032;-68
2022/07/20 06:55:16;;;;;;;8.45;3.50;;;28.40;41.70;;;26.10;50.00;96145.59;4936157;29;20035;-68
2022/07/20 06:57:44;;;;;;;6.28;3.15;;;28.70;41.50;;;26.29;49.84;96139.47;4951708;29;20031;-68
2022/07/20 07:00:11;;;;;;;6.38;3.00;;;28.90;41.20;;;26.47;49.54;96144.91;4921015;28;20043;-68
2022/07/20 07:02:37;;;;;;;5.10;3.13;;;29.00;41.00;;;26.67;49.34;96140.34;4935838;28;20035;-68
2022/07/20 07:05:03;;;;;;;6.35;3.20;;;29.30;40.80;;;26.89;49.31;96147.88;4955546;28;20031;-68
2022/07/20 07:07:29;;;;;;;5.93;2.60;;;29.50;40.50;;;27.10;48.92;96151.94;4949974;28;20027;-68
2022/07/20 07:09:54;;;;;;;6.20;2.90;;;29.80;40.30;;;27.33;48.30;96151.03;4932829;28;20042;-67
2022/07/20 07:12:20;;;;;;;7.05;3.13;;;30.10;39.00;;;27.56;47.40;96151.22;4901657;29;20559;-67
2022/07/20 07:14:46;;;;;;;6.15;2.88;;;30.30;38.60;;;27.79;47.36;96158.41;4900672;28;20459;-66
2022/07/20 07:17:12;;;;;;;8.10;3.22;;;30.60;38.10;;;28.05;46.40;96146.03;4901182;29;20111;-67
2022/07/20 07:19:39;;;;;;;7.22;3.40;;;31.00;37.60;;;28.32;45.69;96139.09;4920343;29;20035;-67
2022/07/20 07:22:05;;;;;;;10.80;3.03;;;31.20;37.20;;;28.58;45.57;96142.88;4944578;28;20039;-66
2022/07/20 07:24:31;;;;;;;7.35;2.90;;;31.50;36.60;;;28.84;44.73;96142.31;4932700;28;20598;-66
2022/07/20 07:26:57;;;;;;;7.55;3.10;;;31.70;36.20;;;29.10;44.39;96148.81;4940805;28;20039;-67
2022/07/20 07:29:23;;;;;;;7.85;3.58;;;31.90;35.90;;;29.33;44.10;96144.19;4925928;29;20438;-66
2022/07/20 07:31:48;;;;;;;8.00;3.15;;;32.10;36.30;;;29.52;43.48;96144.06;4935383;29;20411;-66
2022/07/20 07:34:14;;;;;;;5.40;2.70;;;32.00;36.00;;;29.66;43.09;96144.78;4951236;28;20055;-67
2022/07/20 07:36:40;;;;;;;9.90;3.83;;;32.10;36.60;;;29.79;42.97;96143.91;4942235;28;20046;-67
2022/07/20 07:39:05;;;;;;;7.50;3.10;;;32.30;35.80;;;29.92;43.13;96139.50;4951003;28;20027;-67
2022/07/20 07:41:31;;;;;;;6.40;3.03;;;32.50;36.30;;;30.12;42.98;96136.28;4935447;28;20039;-67
2022/07/20 07:43:57;;;;;;;6.68;3.40;;;32.80;35.50;;;30.36;42.25;96135.91;4935210;29;20115;-66
2022/07/20 07:46:23;;;;;;;7.53;3.08;;;33.10;34.70;;;30.65;41.88;96131.84;4935427;29;20122;-67
2022/07/20 07:48:48;;;;;;;7.53;3.25;;;33.50;34.90;;;30.95;41.93;96133.63;4925323;28;20069;-67
2022/07/20 07:51:14;;;;;;;7.13;3.13;;;33.80;34.60;;;31.30;40.90;96128.25;4952540;28;20039;-67
2022/07/20 07:53:40;;;;;;;8.25;3.60;;;34.20;33.40;;;31.64;41.63;96125.47;4938965;28;20575;-67
2022/07/20 07:56:06;;;;;;;10.20;3.30;;;34.60;34.50;;;31.93;39.76;96126.72;4931914;28;20059;-67
2022/07/20 07:58:31;;;;;;;6.47;3.13;;;34.80;32.50;;;32.22;39.88;96129.50;4916061;29;20056;-67
2022/07/20 08:00:57;;;;;;;6.03;3.75;;;35.10;31.80;;;32.48;38.73;96121.22;4938361;28;20082;-67
2022/07/20 08:03:23;;;;;;;8.80;3.47;;;35.20;31.80;;;32.67;38.46;96134.41;4952344;28;20023;-67
2022/07/20 08:05:48;;;;;;;12.02;3.22;;;35.30;31.60;;;32.87;38.24;96122.78;4939052;28;20499;-67
2022/07/20 08:08:16;;;;;;;15.00;3.85;;;35.60;32.20;;;33.05;37.70;96128.09;4900161;29;20664;-67
2022/07/20 08:10:41;;;;;;;7.28;3.60;;;35.60;31.00;;;33.24;37.00;96125.69;4900013;28;20518;-67
2022/07/20 08:13:08;;;;;;;6.68;3.83;;;35.80;31.20;;;33.50;36.99;96128.22;4916044;29;20028;-67
2022/07/20 08:15:33;;;;;;;6.70;3.47;;;36.10;31.00;;;33.72;36.33;96129.75;4931757;28;20094;-67
2022/07/20 08:18:00;;;;;;;9.55;3.85;;;36.30;31.00;;;33.88;35.91;96128.00;4931553;29;20502;-67
2022/07/20 08:20:25;;;;;;;10.35;3.92;;;36.50;29.70;;;33.99;35.72;96129.19;4950757;28;20032;-67
2022/07/20 08:22:51;;;;;;;9.23;3.95;;;36.60;29.60;;;34.10;35.33;96127.59;4921009;28;20477;-67
2022/07/20 08:25:18;;;;;;;6.95;3.92;;;36.80;28.50;;;34.24;34.84;96130.00;4901916;28;20024;-66
2022/07/20 08:27:44;;;;;;;12.32;3.88;;;37.10;28.40;;;34.45;34.93;96123.69;4961320;28;20137;-67
2022/07/20 08:30:10;;;;;;;7.20;3.78;;;37.30;29.00;;;34.69;33.85;96124.44;4950637;28;20031;-67
2022/07/20 08:32:36;;;;;;;8.32;3.70;;;37.60;28.40;;;34.86;33.75;96128.09;4934071;28;20062;-67
2022/07/20 08:35:02;;;;;;;6.93;4.00;;;37.60;27.90;;;34.91;33.11;96122.41;4950456;28;20051;-66
2022/07/20 08:37:29;;;;;;;8.40;4.00;;;37.30;28.30;;;35.05;33.78;96119.28;4934695;29;20031;-67
2022/07/20 08:39:55;;;;;;;9.23;4.20;;;37.50;28.40;;;35.10;33.08;96110.84;4949970;29;20062;-67
2022/07/20 08:42:20;;;;;;;5.45;3.97;;;37.50;28.20;;;35.18;33.57;96116.16;4937010;28;20118;-66
2022/07/20 08:44:46;;;;;;;6.05;4.00;;;37.60;28.70;;;35.19;33.10;96112.28;4917779;28;20095;-67
2022/07/20 08:47:12;;;;;;;7.28;3.45;;;37.60;28.20;;;35.36;33.65;96107.72;4934309;29;20035;-67
2022/07/20 08:49:49;;;;;;;8.15;4.18;;;38.00;29.30;;;35.53;32.40;96105.47;4949942;28;20027;-67
2022/07/20 08:52:15;;;;;;;5.07;3.85;;;38.00;28.00;;;35.75;32.06;96109.53;4918967;28;20486;-67
2022/07/20 08:54:41;;;;;;;10.63;3.97;;;38.20;27.20;;;35.82;32.07;96117.97;4933581;28;20126;-66
2022/07/20 08:57:09;;;;;;;5.13;3.67;;;38.10;27.90;;;35.90;32.09;96117.03;4929260;28;20027;-67
2022/07/20 08:59:34;;;;;;;7.28;4.10;;;38.20;27.70;;;36.00;31.59;96114.94;4942063;28;20397;-67
2022/07/20 09:02:03;;;;;;;12.07;3.75;;;38.10;27.70;;;36.10;31.24;96114.38;4950320;28;20039;-67
2022/07/20 09:04:29;;;;;;;7.93;3.83;;;38.40;28.00;;;36.20;31.83;96117.38;4919151;29;20043;-67
2022/07/20 09:06:54;;;;;;;5.15;3.80;;;38.40;27.50;;;36.27;31.24;96118.72;4918215;28;20047;-67
2022/07/20 09:09:20;;;;;;;8.93;4.13;;;38.50;26.80;;;36.35;31.08;96115.03;4934114;29;20046;-67
2022/07/20 09:11:47;;;;;;;9.57;4.43;;;38.60;27.40;;;36.41;31.01;96119.88;4937136;28;20043;-67
2022/07/20 09:14:12;;;;;;;8.15;3.95;;;38.60;26.40;;;36.48;30.09;96117.31;4935815;28;20035;-67
2022/07/20 09:16:43;;;;;;;4.68;3.80;;;38.60;26.40;;;36.53;29.69;96109.97;4933580;28;20430;-67
2022/07/20 09:19:09;;;;;;;8.77;4.20;;;38.60;26.20;;;36.61;29.87;96114.44;4934636;29;20132;-67
2022/07/20 09:21:34;;;;;;;7.93;4.68;;;38.80;26.50;;;36.63;30.09;96112.16;4934391;29;20031;-67
2022/07/20 09:24:05;;;;;;;5.25;4.07;;;38.80;26.30;;;36.63;29.83;96112.16;4951292;28;20903;-67
2022/07/20 09:26:31;;;;;;;6.07;4.03;;;38.80;26.30;;;36.72;30.03;96112.78;4935420;29;20458;-67
2022/07/20 09:28:57;;;;;;;6.78;3.83;;;38.90;25.90;;;36.75;29.30;96114.78;4917866;28;20046;-67
2022/07/20 09:31:33;;;;;;;9.27;4.20;;;38.70;25.90;;;36.73;29.11;96114.34;4918711;29;20137;-67
2022/07/20 09:34:07;;;;;;;6.85;3.88;;;38.60;26.10;;;36.75;29.21;96118.31;4935361;29;20032;-67
2022/07/20 09:36:38;;;;;;;7.00;3.78;;;38.90;26.40;;;36.83;29.07;96111.06;4950740;28;20031;-67
2022/07/20 09:39:08;;;;;;;8.30;3.78;;;39.10;26.60;;;36.96;29.60;96109.81;4902105;28;20039;-67
2022/07/20 09:41:35;;;;;;;8.80;4.40;;;39.40;26.30;;;37.09;29.48;96110.47;4949593;28;20023;-67
2022/07/20 09:44:02;;;;;;;6.50;4.00;;;39.60;25.50;;;37.26;29.33;96110.06;4934388;29;20110;-67
2022/07/20 09:46:33;;;;;;;4.80;3.88;;;39.80;25.60;;;37.44;28.44;96113.16;4934427;29;20070;-67
2022/07/20 09:49:02;;;;;;;10.40;4.25;;;40.10;25.30;;;37.60;28.59;96110.34;4914808;28;20074;-67
2022/07/20 09:51:33;;;;;;;5.47;4.15;;;40.30;24.50;;;37.77;28.33;96117.34;4900033;29;20056;-67
2022/07/20 09:54:06;;;;;;;6.63;3.83;;;40.50;25.00;;;37.98;28.75;96115.78;4936276;28;20091;-66
2022/07/20 09:56:33;;;;;;;8.20;3.88;;;40.90;24.90;;;38.20;28.22;96105.97;4946617;28;20031;-67
2022/07/20 09:59:02;;;;;;;9.50;3.00;;;41.00;24.30;;;38.39;28.54;96104.31;4936916;28;20039;-67
2022/07/20 10:01:29;;;;;;;6.47;4.00;;;41.40;24.30;;;38.60;28.16;96104.63;4919867;29;20111;-67
2022/07/20 10:03:57;;;;;;;4.90;3.25;;;41.60;23.70;;;38.81;28.15;96102.22;4918337;29;20048;-66
2022/07/20 10:06:25;;;;;;;6.25;3.60;;;42.20;23.30;;;39.11;27.84;96104.22;4905731;28;20036;-67
2022/07/20 10:08:52;;;;;;;7.10;3.75;;;42.70;23.20;;;39.37;27.55;96098.63;4959290;28;20122;-67
2022/07/20 10:11:19;;;;;;;6.38;3.78;;;42.90;22.20;;;39.72;26.67;96108.50;4937484;29;20071;-67
2022/07/20 10:13:45;;;;;;;5.78;3.60;;;43.40;21.40;;;40.11;26.66;96106.16;4937215;29;20086;-67
2022/07/20 10:16:32;;;;;;;8.15;3.85;;;44.00;21.10;;;40.50;25.96;96106.47;4921416;29;20078;-67
2022/07/20 10:18:58;;;;;;;8.85;3.85;;;44.30;21.30;;;40.84;26.00;96112.66;4953593;28;20368;-67